Airfield :
LOGIN :

Register | Disclaimer

   EN    FR    IT 

 










Legend :    VFR   Marginal VFR   IFR   Intensive IFR   Very Intensive IFR
Visi :
Ceiling :
>= 8 km
>= 3000ft
5 to 8 km
1000 to 3000 ft
1500m to 5 km
500 to 1000 ft
800 to 1500m
200 to 500 ft
< 800m
< 200 ft
Symbols :   Thunderstorms  Fog  Heavy snow  Heavy precipitations  Wind > 20 kt
SIGMETs :     Misc.  Thunderstorms  Icing  Turbulence  Mountain Waves  Volcanic Ashes







- Airport Elevation : 101 ft
- IATA code : GLO
- Download approach charts


EGBJ - Gloucestershire

CURRENT METAR :
  • 221550Z 23002KT 9999 FEW010 FEW020CB 04/02 Q0998

EXPIRED METARs :
  • 221520Z 23004KT 9999 FEW014 SCT030 04/03 Q0999
  • 221450Z 25003KT 9999 -SHRA FEW012 SCT014 04/02 Q0999
  • 221420Z 22004KT 9999 -SHRA FEW010 BKN013 04/02 Q0999
  • 221350Z 21006KT 9999 -SHRA BKN013 04/02 Q0999
  • 221320Z 23005KT 9999 FEW025 SCT037 05/01 Q1000

TAF TAF EGBJ
Valid from the 22 at 15:00 until the 22 at 20:00 UTC


221359Z 2215/2220 23004KT 9999 FEW025
BECMG 2215/2218 31010KT
TEMPO 2215/2218 3000 SHRASN BKN008
PROB30
TEMPO 2218/2220 3000 SHRASN BKN008
No reported NOTAMs for that airfield.
1 SIGMET reported for the London FIR (EGTT) :
 
Severe turbulence
EGTT SIGMET 02 VALID 221430/221830 EGRR
EGTT LONDON FIR SEV TURB FCST WI N5500 W00530 - N5500 W00400 - N5334 W00245 - N5124 W00151 - N5107 W00402 - N5355 W00530 - N5500 W00530 FL160/400 MOV E 15KT NC=



MET'MAP, your aeronautical weather chart ! - Copyright ORBIFLY December 2007 - Disclaimer

ORBIFLY MET'MAP TEAM :

Programming & Development : Alexandra Zaïnal
Concept & Development : Baudouin d'Aumeries
Co-Development & Prog : Marc-Olivier Méhu
Technical & hardware support : Manuel Goepfert

Contact : metmap@orbifly.com




SOURCES & CREDITS :

   NOAA